createdAt,value
2022-09-07T00:01:22.655Z,99357.06
2022-09-07T00:04:27.367Z,99350.72
2022-09-07T00:07:32.425Z,99385.28
2022-09-07T00:10:37.393Z,99401.44
2022-09-07T00:13:43.593Z,99404.09
2022-09-07T00:16:48.470Z,99388.88
2022-09-07T00:19:53.665Z,99399.72
2022-09-07T00:22:58.504Z,99402.22
2022-09-07T00:26:07.958Z,99399.25
2022-09-07T00:29:12.594Z,99408.34
2022-09-07T00:32:17.457Z,99395.44
2022-09-07T00:35:22.066Z,99419.25
2022-09-07T00:38:27.020Z,99455.72
2022-09-07T00:41:32.218Z,99463.63
2022-09-07T00:44:45.959Z,99450.72
2022-09-07T00:48:24.879Z,99442.63
2022-09-07T00:51:49.971Z,99435.72
2022-09-07T00:55:00.190Z,99486.13
2022-09-07T00:58:08.738Z,99420.63
2022-09-07T01:01:13.821Z,99459.50
2022-09-07T01:04:19.532Z,99447.47
2022-09-07T01:07:24.653Z,99490.22
2022-09-07T01:10:34.445Z,99484.09
2022-09-07T01:13:41.916Z,99457.97
2022-09-07T01:16:55.263Z,99481.53
2022-09-07T06:44:39.690Z,99801.50
2022-09-07T06:48:44.756Z,99841.81
2022-09-07T07:01:20.226Z,99834.38
2022-09-07T07:08:58.064Z,99872.44
2022-09-07T09:06:27.201Z,100059.94
2022-09-07T10:40:33.051Z,100223.69
2022-09-07T10:43:51.025Z,100209.91
2022-09-07T10:47:10.134Z,100245.53
2022-09-07T10:50:49.865Z,100279.81
2022-09-07T10:54:36.249Z,100245.44
2022-09-07T10:57:59.702Z,100138.38
2022-09-07T11:01:55.485Z,100294.16
2022-09-07T11:05:36.081Z,100299.06
2022-09-07T12:27:56.675Z,100318.88
2022-09-07T12:31:57.681Z,100239.69
2022-09-07T12:35:08.521Z,100282.84
2022-09-07T12:38:22.012Z,100362.75
2022-09-07T12:41:47.400Z,100357.47
2022-09-07T12:45:49.200Z,100417.31
2022-09-07T12:49:09.185Z,100335.09
2022-09-07T12:52:35.476Z,100416.69
2022-09-07T12:59:56.017Z,100368.13
2022-09-07T13:03:49.504Z,100416.69
2022-09-07T13:07:09.872Z,100336.44
2022-09-07T13:10:38.137Z,100412.88
2022-09-07T13:19:52.107Z,100428.47
2022-09-07T13:22:58.602Z,100370.69
2022-09-07T13:26:05.413Z,100323.34
2022-09-07T13:29:17.994Z,100432.22
2022-09-07T13:36:02.275Z,100435.41
2022-09-07T13:39:10.500Z,100359.78
2022-09-07T13:42:33.371Z,100438.44
2022-09-07T13:45:56.463Z,100425.47
2022-09-07T13:49:32.077Z,100425.72
2022-09-07T13:53:01.927Z,100410.63
2022-09-07T13:56:47.412Z,100470.13
2022-09-07T13:59:53.455Z,100421.78
2022-09-07T14:03:07.516Z,100430.34
2022-09-07T14:06:30.802Z,100487.22
2022-09-07T14:09:36.275Z,100419.00
2022-09-07T14:12:54.477Z,100498.09
2022-09-07T14:15:59.330Z,100458.72
2022-09-07T14:19:12.205Z,100468.44
2022-09-07T14:22:21.420Z,100500.16
2022-09-07T14:25:29.530Z,100463.16
2022-09-07T14:28:39.116Z,100397.41
2022-09-07T14:31:45.731Z,100508.94
2022-09-07T14:34:53.459Z,100520.94
2022-09-07T14:39:03.928Z,100466.44
2022-09-07T14:41:52.326Z,100456.28
2022-09-07T14:45:38.239Z,100408.34
2022-09-07T14:48:50.187Z,100516.06
2022-09-07T14:52:05.291Z,100481.19
2022-09-07T14:55:32.270Z,100516.19
2022-09-07T14:58:37.219Z,100407.38
2022-09-07T15:02:12.827Z,100465.69
2022-09-07T15:05:29.686Z,100516.63
2022-09-07T15:08:44.804Z,100386.59
2022-09-07T15:12:04.996Z,100414.97
2022-09-07T15:15:27.772Z,100387.38
2022-09-07T15:18:47.803Z,100496.41
2022-09-07T15:21:52.726Z,100394.28
2022-09-07T15:24:57.756Z,100513.75
2022-09-07T15:28:02.856Z,100376.28
2022-09-07T15:34:40.529Z,100502.44
2022-09-07T15:38:02.935Z,100486.00
2022-09-07T15:41:27.796Z,100502.53
2022-09-07T15:44:47.126Z,100506.88
2022-09-07T15:47:55.295Z,100494.03
2022-09-07T16:11:35.185Z,100548.50
2022-09-07T16:15:18.747Z,100430.38
2022-09-07T16:18:31.210Z,100537.13
2022-09-07T16:21:48.510Z,100396.69
2022-09-07T16:25:02.434Z,100531.88
2022-09-07T16:28:31.874Z,100413.03
2022-09-07T16:35:12.585Z,100514.13
2022-09-07T16:38:44.448Z,100540.69
2022-09-07T16:42:10.298Z,100449.28
2022-09-07T16:52:46.016Z,100541.00
2022-09-07T16:56:09.776Z,100541.84
2022-09-07T16:59:30.759Z,100516.28
2022-09-07T17:02:37.477Z,100555.00
2022-09-07T17:05:44.357Z,100553.19
2022-09-07T17:08:54.940Z,100549.56
2022-09-07T17:12:01.628Z,100482.97
2022-09-07T17:15:09.985Z,100449.00
2022-09-07T17:18:17.922Z,100464.44
2022-09-07T17:21:27.292Z,100514.50
2022-09-07T17:24:35.026Z,100571.22
2022-09-07T17:28:10.875Z,100544.44
2022-09-07T17:35:38.083Z,100582.13
2022-09-07T17:45:54.553Z,100485.78
2022-09-07T17:49:02.371Z,100564.97
2022-09-07T17:52:07.144Z,100572.84
2022-09-07T17:55:12.013Z,100566.09
2022-09-07T17:58:17.181Z,100533.72
2022-09-07T18:01:25.624Z,100548.28
2022-09-07T18:04:30.506Z,100593.81
2022-09-07T18:07:35.997Z,100573.16
2022-09-07T18:14:16.187Z,100551.59
2022-09-07T18:22:26.717Z,100539.09
2022-09-07T18:25:44.987Z,100584.53
2022-09-07T18:29:08.404Z,100598.13
2022-09-07T18:32:17.932Z,100518.91
2022-09-07T18:35:22.480Z,100582.44
2022-09-07T18:38:28.425Z,100562.44
2022-09-07T18:41:34.099Z,100579.91
2022-09-07T18:48:03.947Z,100599.06
2022-09-07T18:51:09.937Z,100602.00
2022-09-07T18:54:14.551Z,100581.88
2022-09-07T18:57:19.876Z,100571.16
2022-09-07T19:00:25.122Z,100534.91
2022-09-07T19:03:29.902Z,100606.22
2022-09-07T19:09:45.024Z,100571.31
2022-09-07T19:12:49.577Z,100616.53
2022-09-07T19:15:54.589Z,100592.16
2022-09-07T19:19:04.465Z,100506.31
2022-09-07T19:22:09.203Z,100514.47
2022-09-07T19:25:13.987Z,100493.97
2022-09-07T19:28:20.078Z,100596.56
2022-09-07T19:31:25.740Z,100620.44
2022-09-07T19:34:31.886Z,100616.22
2022-09-07T19:37:36.507Z,100577.06
2022-09-07T19:40:41.548Z,100613.69
2022-09-07T19:43:47.574Z,100585.84
2022-09-07T19:46:52.537Z,100579.25
2022-09-07T19:49:57.193Z,100608.34
2022-09-07T19:53:01.963Z,100587.81
2022-09-07T19:56:13.823Z,100642.91
2022-09-07T19:59:20.620Z,100607.91
2022-09-07T20:02:25.554Z,100647.88
2022-09-07T20:05:32.086Z,100663.81
2022-09-07T20:08:37.897Z,100665.25
2022-09-07T20:11:46.253Z,100595.25
2022-09-07T20:14:51.628Z,100591.28
2022-09-07T20:17:56.518Z,100607.94
2022-09-07T20:21:05.923Z,100639.41
2022-09-07T20:24:13.443Z,100662.84
2022-09-07T20:27:17.981Z,100636.72
2022-09-07T20:30:25.132Z,100636.97
2022-09-07T20:33:33.244Z,100644.28
2022-09-07T20:36:38.001Z,100635.56
2022-09-07T20:39:42.559Z,100672.22
2022-09-07T20:42:46.945Z,100655.34
2022-09-07T20:45:52.132Z,100638.47
2022-09-07T20:48:57.107Z,100638.50
2022-09-07T20:52:01.819Z,100697.28
2022-09-07T20:55:07.173Z,100686.59
2022-09-07T20:58:12.036Z,100651.06
2022-09-07T21:01:19.247Z,100628.59
2022-09-07T21:04:27.200Z,100651.16
2022-09-07T21:07:31.740Z,100655.44
2022-09-07T21:10:40.731Z,100695.38
2022-09-07T21:13:45.348Z,100631.72
2022-09-07T21:16:49.955Z,100697.59
2022-09-07T21:19:55.037Z,100677.97
2022-09-07T21:23:00.449Z,100685.28
2022-09-07T21:26:06.742Z,100687.34
2022-09-07T21:29:17.649Z,100718.03
2022-09-07T21:32:22.363Z,100695.44
2022-09-07T21:35:27.083Z,100699.75
2022-09-07T21:38:31.933Z,100697.38
2022-09-07T21:41:36.786Z,100689.88
2022-09-07T21:44:44.555Z,100656.41
2022-09-07T21:47:49.890Z,100698.19
2022-09-07T21:51:00.031Z,100742.13
2022-09-07T21:54:06.860Z,100655.44
2022-09-07T21:57:20.429Z,100748.31
2022-09-07T22:02:17.942Z,100755.97
2022-09-07T22:04:59.377Z,100690.97
2022-09-07T22:08:07.548Z,100714.16
2022-09-07T22:11:21.084Z,100695.38
2022-09-07T22:14:25.933Z,100762.91
2022-09-07T22:17:30.303Z,100739.91
2022-09-07T22:20:35.883Z,100733.28
2022-09-07T22:23:56.989Z,100705.97
2022-09-07T22:27:01.563Z,100726.41
2022-09-07T22:30:07.858Z,100745.84
2022-09-07T22:33:12.522Z,100748.13
2022-09-07T22:36:20.049Z,100717.84
2022-09-07T22:39:24.570Z,100753.41
2022-09-07T22:42:29.071Z,100729.66
2022-09-07T22:45:33.862Z,100702.22
2022-09-07T22:48:39.617Z,100740.69
2022-09-07T22:51:45.233Z,100765.44
2022-09-07T22:54:49.992Z,100750.41
2022-09-07T22:57:54.879Z,100728.03
2022-09-07T23:01:00.492Z,100720.47
2022-09-07T23:04:05.510Z,100739.94
2022-09-07T23:07:10.416Z,100720.97
2022-09-07T23:10:14.917Z,100754.22
2022-09-07T23:13:19.622Z,100744.44
2022-09-07T23:16:24.848Z,100746.91
2022-09-07T23:19:29.402Z,100695.91
2022-09-07T23:22:34.136Z,100714.06
2022-09-07T23:25:40.128Z,100724.47
2022-09-07T23:28:44.648Z,100690.06
2022-09-07T23:31:49.403Z,100676.75
2022-09-07T23:34:54.092Z,100704.91
2022-09-07T23:37:58.622Z,100687.00
2022-09-07T23:41:03.347Z,100716.19
2022-09-07T23:44:07.994Z,100719.53
2022-09-07T23:47:12.975Z,100700.50
2022-09-07T23:50:17.764Z,100685.91
2022-09-07T23:53:23.301Z,100712.44
2022-09-07T23:56:27.364Z,100718.91
2022-09-07T23:59:34.726Z,100697.13
